Sacramento Executive Airport
KSAC : now visible

Airfield :











YOU CAN JOIN US ON...

 
LOGIN :

Register | Disclaimer

   EN    FR    IT 

 









Legend :    VFR   Marginal VFR   IFR   Intensive IFR   Very Intensive IFR
Visi :
Ceiling :
>= 8 km
>= 3000ft
5 to 8 km
1000 to 3000 ft
1500m to 5 km
500 to 1000 ft
800 to 1500m
200 to 500 ft
< 800m
< 200 ft
Symbols :   Thunderstorms  Fog  Heavy snow  Heavy precipitations  Wind > 20 kt






- Airport Elevation : 24 ft


KSAC - Sacramento Executive

CURRENT METAR :
  • 110453Z 08004KT 5SM -RA BR BKN070 OVC085 11/09 A3025 RMK AO2 RAB00 SLP243 P0001 T01110094

EXPIRED METARs :
  • 110353Z 36003KT 7SM BKN095 OVC110 11/09 A3025 RMK AO2 SLP243 T01110089
  • 110337Z 32004KT 7SM SCT027 OVC110 11/09 A3025 RMK AO2 T01110089
  • 110253Z 27006KT 7SM OVC016 12/09 A3025 RMK AO2 PRESRR SLP241 T01170094 53013

TAF KSAC
Valid from the 11 at 03:00 until the 12 at 00:00 UTC


110330Z 1103/1124 27006KT P6SM OVC016
FM110400 00000KT 6SM -RA BR OVC020
FM110900 VRB03KT 6SM BR OVC012
FM111300 VRB02KT 4SM BR OVC012
FM111900 10003KT P6SM OVC035



MET'MAP, your aeronautical weather chart ! - Copyright ORBIFLY December 2007 - Disclaimer

ORBIFLY MET'MAP TEAM :

Programming & Development : Alexandra Zaïnal
Concept & original design : Baudouin d'Aumeries
Assistance for programming : Marc-Olivier Méhu
Technical & hardware support : Manuel Goepfert

Contact : metmap@orbifly.com




SOURCES & CREDITS :

   NOAA       Earth
Advisory